sensor_id;sensor_type;location;lat;lon;timestamp;P1;durP1;ratioP1;P2;durP2;ratioP2
76284;SDS011;65096;50.998;7.098;2023-02-11T00:01:26;28.35;;;12.73;;
76284;SDS011;65096;50.998;7.098;2023-02-11T00:03:54;24.40;;;12.45;;
76284;SDS011;65096;50.998;7.098;2023-02-11T00:06:22;25.27;;;12.80;;
76284;SDS011;65096;50.998;7.098;2023-02-11T00:08:50;23.83;;;12.20;;
76284;SDS011;65096;50.998;7.098;2023-02-11T00:11:18;26.23;;;13.57;;
76284;SDS011;65096;50.998;7.098;2023-02-11T00:13:46;25.27;;;12.88;;
76284;SDS011;65096;50.998;7.098;2023-02-11T00:16:14;26.83;;;13.27;;
76284;SDS011;65096;50.998;7.098;2023-02-11T00:18:42;23.52;;;11.77;;
76284;SDS011;65096;50.998;7.098;2023-02-11T00:21:10;26.67;;;12.95;;
76284;SDS011;65096;50.998;7.098;2023-02-11T00:23:38;22.98;;;12.07;;
76284;SDS011;65096;50.998;7.098;2023-02-11T00:26:11;26.75;;;13.30;;
76284;SDS011;65096;50.998;7.098;2023-02-11T00:28:39;24.27;;;13.20;;
76284;SDS011;65096;50.998;7.098;2023-02-11T00:31:06;26.50;;;12.63;;
76284;SDS011;65096;50.998;7.098;2023-02-11T00:33:32;22.08;;;11.73;;
76284;SDS011;65096;50.998;7.098;2023-02-11T00:36:02;24.45;;;13.13;;
76284;SDS011;65096;50.998;7.098;2023-02-11T00:38:29;22.45;;;11.85;;
76284;SDS011;65096;50.998;7.098;2023-02-11T00:40:56;24.08;;;13.38;;
76284;SDS011;65096;50.998;7.098;2023-02-11T00:43:24;28.10;;;13.32;;
76284;SDS011;65096;50.998;7.098;2023-02-11T00:45:53;25.88;;;12.68;;
76284;SDS011;65096;50.998;7.098;2023-02-11T00:48:20;22.33;;;12.27;;
76284;SDS011;65096;50.998;7.098;2023-02-11T00:50:47;25.13;;;12.43;;
76284;SDS011;65096;50.998;7.098;2023-02-11T00:53:13;26.88;;;12.75;;
76284;SDS011;65096;50.998;7.098;2023-02-11T00:55:40;22.67;;;12.25;;
76284;SDS011;65096;50.998;7.098;2023-02-11T00:58:07;24.50;;;13.30;;
76284;SDS011;65096;50.998;7.098;2023-02-11T01:00:35;24.75;;;12.25;;
76284;SDS011;65096;50.998;7.098;2023-02-11T01:03:01;23.77;;;11.95;;
76284;SDS011;65096;50.998;7.098;2023-02-11T01:05:28;23.83;;;11.93;;
76284;SDS011;65096;50.998;7.098;2023-02-11T01:07:55;25.45;;;12.50;;
76284;SDS011;65096;50.998;7.098;2023-02-11T01:10:22;24.02;;;11.25;;
76284;SDS011;65096;50.998;7.098;2023-02-11T01:12:49;26.33;;;12.48;;
76284;SDS011;65096;50.998;7.098;2023-02-11T01:15:16;23.67;;;12.07;;
76284;SDS011;65096;50.998;7.098;2023-02-11T01:17:47;25.45;;;12.93;;
76284;SDS011;65096;50.998;7.098;2023-02-11T01:20:15;24.75;;;13.23;;
76284;SDS011;65096;50.998;7.098;2023-02-11T01:22:43;24.95;;;12.02;;
76284;SDS011;65096;50.998;7.098;2023-02-11T01:25:10;21.60;;;11.77;;
76284;SDS011;65096;50.998;7.098;2023-02-11T01:27:37;22.88;;;11.88;;
76284;SDS011;65096;50.998;7.098;2023-02-11T01:30:04;23.23;;;12.52;;
76284;SDS011;65096;50.998;7.098;2023-02-11T01:32:33;24.48;;;11.60;;
76284;SDS011;65096;50.998;7.098;2023-02-11T01:35:01;26.58;;;13.60;;
76284;SDS011;65096;50.998;7.098;2023-02-11T01:37:28;24.75;;;12.30;;
76284;SDS011;65096;50.998;7.098;2023-02-11T01:39:57;25.00;;;12.18;;
76284;SDS011;65096;50.998;7.098;2023-02-11T01:42:24;25.52;;;11.73;;
76284;SDS011;65096;50.998;7.098;2023-02-11T01:44:51;25.00;;;12.55;;
76284;SDS011;65096;50.998;7.098;2023-02-11T01:47:19;22.73;;;11.77;;
76284;SDS011;65096;50.998;7.098;2023-02-11T01:49:47;22.77;;;12.43;;
76284;SDS011;65096;50.998;7.098;2023-02-11T01:52:20;24.30;;;11.82;;
76284;SDS011;65096;50.998;7.098;2023-02-11T01:54:51;27.17;;;11.93;;
76284;SDS011;65096;50.998;7.098;2023-02-11T01:57:43;23.05;;;12.32;;
76284;SDS011;65096;50.998;7.098;2023-02-11T02:00:13;25.58;;;13.15;;
76284;SDS011;65096;50.998;7.098;2023-02-11T02:02:45;28.20;;;12.80;;
76284;SDS011;65096;50.998;7.098;2023-02-11T02:05:20;25.80;;;12.95;;
76284;SDS011;65096;50.998;7.098;2023-02-11T02:07:57;23.08;;;12.40;;
76284;SDS011;65096;50.998;7.098;2023-02-11T02:10:29;25.45;;;11.65;;
76284;SDS011;65096;50.998;7.098;2023-02-11T02:12:59;19.05;;;11.55;;
76284;SDS011;65096;50.998;7.098;2023-02-11T02:15:27;26.08;;;11.98;;
76284;SDS011;65096;50.998;7.098;2023-02-11T02:18:11;27.25;;;12.57;;
76284;SDS011;65096;50.998;7.098;2023-02-11T02:27:08;29.38;;;14.55;;
76284;SDS011;65096;50.998;7.098;2023-02-11T02:29:59;24.45;;;12.07;;
76284;SDS011;65096;50.998;7.098;2023-02-11T02:32:49;23.70;;;11.90;;
76284;SDS011;65096;50.998;7.098;2023-02-11T02:35:27;23.65;;;11.75;;
76284;SDS011;65096;50.998;7.098;2023-02-11T02:38:00;20.17;;;11.50;;
76284;SDS011;65096;50.998;7.098;2023-02-11T02:40:31;24.17;;;13.25;;
76284;SDS011;65096;50.998;7.098;2023-02-11T02:43:02;26.17;;;12.18;;
76284;SDS011;65096;50.998;7.098;2023-02-11T02:45:30;23.83;;;12.70;;
76284;SDS011;65096;50.998;7.098;2023-02-11T02:47:59;25.17;;;12.60;;
76284;SDS011;65096;50.998;7.098;2023-02-11T02:50:27;24.73;;;13.15;;
76284;SDS011;65096;50.998;7.098;2023-02-11T02:53:00;28.25;;;12.88;;
76284;SDS011;65096;50.998;7.098;2023-02-11T02:55:41;25.60;;;12.88;;
76284;SDS011;65096;50.998;7.098;2023-02-11T02:58:38;22.70;;;12.00;;
76284;SDS011;65096;50.998;7.098;2023-02-11T03:01:20;23.70;;;11.68;;
76284;SDS011;65096;50.998;7.098;2023-02-11T03:04:00;26.67;;;11.75;;
76284;SDS011;65096;50.998;7.098;2023-02-11T03:06:36;26.55;;;12.88;;
76284;SDS011;65096;50.998;7.098;2023-02-11T03:09:12;25.27;;;12.13;;
76284;SDS011;65096;50.998;7.098;2023-02-11T03:14:11;25.67;;;12.90;;
76284;SDS011;65096;50.998;7.098;2023-02-11T03:16:42;24.05;;;12.40;;
76284;SDS011;65096;50.998;7.098;2023-02-11T03:19:12;26.48;;;12.90;;
76284;SDS011;65096;50.998;7.098;2023-02-11T03:21:42;24.00;;;11.70;;
76284;SDS011;65096;50.998;7.098;2023-02-11T03:24:13;24.95;;;13.13;;
76284;SDS011;65096;50.998;7.098;2023-02-11T03:26:45;24.92;;;12.30;;
76284;SDS011;65096;50.998;7.098;2023-02-11T03:29:16;27.23;;;13.20;;
76284;SDS011;65096;50.998;7.098;2023-02-11T03:31:52;23.30;;;12.02;;
76284;SDS011;65096;50.998;7.098;2023-02-11T03:34:26;26.90;;;12.77;;
76284;SDS011;65096;50.998;7.098;2023-02-11T03:36:58;24.65;;;12.70;;
76284;SDS011;65096;50.998;7.098;2023-02-11T03:39:30;22.38;;;11.98;;
76284;SDS011;65096;50.998;7.098;2023-02-11T03:44:30;26.77;;;13.23;;
76284;SDS011;65096;50.998;7.098;2023-02-11T03:47:01;31.63;;;14.80;;
76284;SDS011;65096;50.998;7.098;2023-02-11T03:49:33;30.83;;;15.00;;
76284;SDS011;65096;50.998;7.098;2023-02-11T03:52:01;27.17;;;13.60;;
76284;SDS011;65096;50.998;7.098;2023-02-11T03:54:31;26.83;;;15.30;;
76284;SDS011;65096;50.998;7.098;2023-02-11T03:56:58;25.58;;;13.43;;
76284;SDS011;65096;50.998;7.098;2023-02-11T03:59:27;25.25;;;14.15;;
76284;SDS011;65096;50.998;7.098;2023-02-11T04:01:55;31.67;;;15.75;;
76284;SDS011;65096;50.998;7.098;2023-02-11T04:04:23;27.80;;;13.73;;
76284;SDS011;65096;50.998;7.098;2023-02-11T04:06:51;33.80;;;15.52;;
76284;SDS011;65096;50.998;7.098;2023-02-11T04:09:18;31.63;;;15.48;;
76284;SDS011;65096;50.998;7.098;2023-02-11T04:11:45;32.00;;;15.45;;
76284;SDS011;65096;50.998;7.098;2023-02-11T04:14:11;32.72;;;15.93;;
76284;SDS011;65096;50.998;7.098;2023-02-11T04:16:38;32.00;;;15.98;;
76284;SDS011;65096;50.998;7.098;2023-02-11T04:19:05;34.80;;;15.30;;
76284;SDS011;65096;50.998;7.098;2023-02-11T04:21:32;34.33;;;16.13;;
76284;SDS011;65096;50.998;7.098;2023-02-11T04:24:00;32.03;;;15.00;;
76284;SDS011;65096;50.998;7.098;2023-02-11T04:26:26;31.10;;;15.88;;
76284;SDS011;65096;50.998;7.098;2023-02-11T04:28:53;29.40;;;16.10;;
76284;SDS011;65096;50.998;7.098;2023-02-11T04:31:20;32.83;;;15.75;;
76284;SDS011;65096;50.998;7.098;2023-02-11T04:33:46;34.10;;;15.30;;
76284;SDS011;65096;50.998;7.098;2023-02-11T04:36:13;31.52;;;14.43;;
76284;SDS011;65096;50.998;7.098;2023-02-11T04:38:40;28.85;;;14.90;;
76284;SDS011;65096;50.998;7.098;2023-02-11T04:41:08;29.02;;;14.75;;
76284;SDS011;65096;50.998;7.098;2023-02-11T04:43:36;32.53;;;15.35;;
76284;SDS011;65096;50.998;7.098;2023-02-11T04:46:02;34.30;;;16.00;;
76284;SDS011;65096;50.998;7.098;2023-02-11T04:48:29;31.08;;;14.35;;
76284;SDS011;65096;50.998;7.098;2023-02-11T04:50:56;30.95;;;14.63;;
76284;SDS011;65096;50.998;7.098;2023-02-11T04:53:22;30.13;;;15.00;;
76284;SDS011;65096;50.998;7.098;2023-02-11T04:55:49;32.20;;;15.20;;
76284;SDS011;65096;50.998;7.098;2023-02-11T04:58:17;29.10;;;15.68;;
76284;SDS011;65096;50.998;7.098;2023-02-11T05:00:44;34.33;;;14.13;;
76284;SDS011;65096;50.998;7.098;2023-02-11T05:03:12;27.45;;;13.50;;
76284;SDS011;65096;50.998;7.098;2023-02-11T05:05:38;29.05;;;15.18;;
76284;SDS011;65096;50.998;7.098;2023-02-11T05:08:06;28.23;;;14.30;;
76284;SDS011;65096;50.998;7.098;2023-02-11T05:10:33;32.08;;;16.48;;
76284;SDS011;65096;50.998;7.098;2023-02-11T05:13:00;28.20;;;13.73;;
76284;SDS011;65096;50.998;7.098;2023-02-11T05:15:29;29.27;;;14.40;;
76284;SDS011;65096;50.998;7.098;2023-02-11T05:17:55;27.02;;;13.02;;
76284;SDS011;65096;50.998;7.098;2023-02-11T05:20:22;29.95;;;13.77;;
76284;SDS011;65096;50.998;7.098;2023-02-11T05:22:49;27.92;;;13.85;;
76284;SDS011;65096;50.998;7.098;2023-02-11T05:25:16;30.02;;;15.23;;
76284;SDS011;65096;50.998;7.098;2023-02-11T05:27:42;30.00;;;14.40;;
76284;SDS011;65096;50.998;7.098;2023-02-11T05:30:09;29.73;;;12.80;;
76284;SDS011;65096;50.998;7.098;2023-02-11T05:32:38;25.25;;;13.27;;
76284;SDS011;65096;50.998;7.098;2023-02-11T05:35:05;38.22;;;15.45;;
76284;SDS011;65096;50.998;7.098;2023-02-11T05:37:32;26.02;;;13.07;;
76284;SDS011;65096;50.998;7.098;2023-02-11T05:39:58;26.48;;;12.45;;
76284;SDS011;65096;50.998;7.098;2023-02-11T05:42:25;23.73;;;13.00;;
76284;SDS011;65096;50.998;7.098;2023-02-11T05:44:52;35.92;;;15.20;;
76284;SDS011;65096;50.998;7.098;2023-02-11T05:47:18;29.15;;;14.02;;
76284;SDS011;65096;50.998;7.098;2023-02-11T05:49:46;30.35;;;14.18;;
76284;SDS011;65096;50.998;7.098;2023-02-11T05:52:13;30.02;;;13.57;;
76284;SDS011;65096;50.998;7.098;2023-02-11T05:54:40;29.75;;;14.20;;
76284;SDS011;65096;50.998;7.098;2023-02-11T05:57:07;28.00;;;13.18;;
76284;SDS011;65096;50.998;7.098;2023-02-11T05:59:33;32.13;;;13.90;;
76284;SDS011;65096;50.998;7.098;2023-02-11T06:02:00;24.88;;;12.55;;
76284;SDS011;65096;50.998;7.098;2023-02-11T06:04:30;32.85;;;13.65;;
76284;SDS011;65096;50.998;7.098;2023-02-11T06:06:58;30.98;;;13.77;;
76284;SDS011;65096;50.998;7.098;2023-02-11T06:09:25;28.83;;;12.10;;
76284;SDS011;65096;50.998;7.098;2023-02-11T06:11:52;29.83;;;13.48;;
76284;SDS011;65096;50.998;7.098;2023-02-11T06:14:18;31.30;;;13.50;;
76284;SDS011;65096;50.998;7.098;2023-02-11T06:16:45;29.75;;;14.07;;
76284;SDS011;65096;50.998;7.098;2023-02-11T06:19:12;30.95;;;14.45;;
76284;SDS011;65096;50.998;7.098;2023-02-11T06:21:39;30.33;;;12.93;;
76284;SDS011;65096;50.998;7.098;2023-02-11T06:24:07;30.58;;;13.63;;
76284;SDS011;65096;50.998;7.098;2023-02-11T06:26:34;32.38;;;12.98;;
76284;SDS011;65096;50.998;7.098;2023-02-11T06:29:00;29.52;;;14.35;;
76284;SDS011;65096;50.998;7.098;2023-02-11T06:31:27;28.48;;;13.90;;
76284;SDS011;65096;50.998;7.098;2023-02-11T06:33:54;31.95;;;14.57;;
76284;SDS011;65096;50.998;7.098;2023-02-11T06:36:21;32.17;;;14.50;;
76284;SDS011;65096;50.998;7.098;2023-02-11T06:38:48;30.63;;;14.52;;
76284;SDS011;65096;50.998;7.098;2023-02-11T06:41:17;34.33;;;15.15;;
76284;SDS011;65096;50.998;7.098;2023-02-11T06:43:45;30.42;;;14.40;;
76284;SDS011;65096;50.998;7.098;2023-02-11T06:46:12;29.80;;;14.43;;
76284;SDS011;65096;50.998;7.098;2023-02-11T06:48:39;30.33;;;14.32;;
76284;SDS011;65096;50.998;7.098;2023-02-11T06:51:07;32.35;;;14.95;;
76284;SDS011;65096;50.998;7.098;2023-02-11T06:53:36;34.72;;;15.30;;
76284;SDS011;65096;50.998;7.098;2023-02-11T06:56:04;31.17;;;15.18;;
76284;SDS011;65096;50.998;7.098;2023-02-11T06:58:34;30.30;;;14.13;;
76284;SDS011;65096;50.998;7.098;2023-02-11T07:01:03;32.78;;;14.88;;
76284;SDS011;65096;50.998;7.098;2023-02-11T07:03:31;31.85;;;15.93;;
76284;SDS011;65096;50.998;7.098;2023-02-11T07:06:00;28.52;;;13.90;;
76284;SDS011;65096;50.998;7.098;2023-02-11T07:08:27;30.90;;;14.65;;
76284;SDS011;65096;50.998;7.098;2023-02-11T07:10:54;33.67;;;14.57;;
76284;SDS011;65096;50.998;7.098;2023-02-11T07:13:20;31.13;;;14.65;;
76284;SDS011;65096;50.998;7.098;2023-02-11T07:15:48;37.72;;;15.10;;
76284;SDS011;65096;50.998;7.098;2023-02-11T07:18:15;39.05;;;16.98;;
76284;SDS011;65096;50.998;7.098;2023-02-11T07:20:42;33.75;;;16.50;;
76284;SDS011;65096;50.998;7.098;2023-02-11T07:23:09;32.72;;;14.57;;
76284;SDS011;65096;50.998;7.098;2023-02-11T07:25:36;28.85;;;15.10;;
76284;SDS011;65096;50.998;7.098;2023-02-11T07:28:03;30.15;;;14.80;;
76284;SDS011;65096;50.998;7.098;2023-02-11T07:30:30;33.97;;;15.65;;
76284;SDS011;65096;50.998;7.098;2023-02-11T07:32:58;34.05;;;14.88;;
76284;SDS011;65096;50.998;7.098;2023-02-11T07:35:24;32.85;;;15.77;;
76284;SDS011;65096;50.998;7.098;2023-02-11T07:37:51;36.67;;;15.25;;
76284;SDS011;65096;50.998;7.098;2023-02-11T07:40:18;33.55;;;16.40;;
76284;SDS011;65096;50.998;7.098;2023-02-11T07:42:45;33.50;;;15.52;;
76284;SDS011;65096;50.998;7.098;2023-02-11T07:45:11;30.98;;;14.43;;
76284;SDS011;65096;50.998;7.098;2023-02-11T07:47:38;35.95;;;16.40;;
76284;SDS011;65096;50.998;7.098;2023-02-11T07:50:08;37.75;;;16.25;;
76284;SDS011;65096;50.998;7.098;2023-02-11T07:52:35;32.08;;;15.65;;
76284;SDS011;65096;50.998;7.098;2023-02-11T07:55:02;34.95;;;16.55;;
76284;SDS011;65096;50.998;7.098;2023-02-11T07:57:28;33.22;;;15.50;;
76284;SDS011;65096;50.998;7.098;2023-02-11T07:59:55;34.95;;;16.10;;
76284;SDS011;65096;50.998;7.098;2023-02-11T08:02:22;32.58;;;16.30;;
76284;SDS011;65096;50.998;7.098;2023-02-11T08:04:48;39.42;;;17.77;;
76284;SDS011;65096;50.998;7.098;2023-02-11T08:07:17;36.85;;;18.88;;
76284;SDS011;65096;50.998;7.098;2023-02-11T08:09:44;37.13;;;16.80;;
76284;SDS011;65096;50.998;7.098;2023-02-11T08:12:11;34.90;;;15.80;;
76284;SDS011;65096;50.998;7.098;2023-02-11T08:14:37;37.53;;;17.60;;
76284;SDS011;65096;50.998;7.098;2023-02-11T08:17:04;33.83;;;16.55;;
76284;SDS011;65096;50.998;7.098;2023-02-11T08:19:31;46.83;;;18.98;;
76284;SDS011;65096;50.998;7.098;2023-02-11T08:21:57;41.13;;;18.08;;
76284;SDS011;65096;50.998;7.098;2023-02-11T08:24:26;40.08;;;17.73;;
76284;SDS011;65096;50.998;7.098;2023-02-11T08:26:53;38.33;;;17.63;;
76284;SDS011;65096;50.998;7.098;2023-02-11T08:29:20;40.05;;;18.60;;
76284;SDS011;65096;50.998;7.098;2023-02-11T08:31:47;41.03;;;17.75;;
76284;SDS011;65096;50.998;7.098;2023-02-11T08:34:14;42.58;;;19.50;;
76284;SDS011;65096;50.998;7.098;2023-02-11T08:36:43;43.78;;;20.42;;
76284;SDS011;65096;50.998;7.098;2023-02-11T08:39:13;39.33;;;17.30;;
76284;SDS011;65096;50.998;7.098;2023-02-11T08:41:43;44.05;;;18.73;;
76284;SDS011;65096;50.998;7.098;2023-02-11T08:44:10;46.75;;;20.25;;
76284;SDS011;65096;50.998;7.098;2023-02-11T08:46:37;46.00;;;19.83;;
76284;SDS011;65096;50.998;7.098;2023-02-11T08:49:04;44.22;;;18.42;;
76284;SDS011;65096;50.998;7.098;2023-02-11T08:51:30;45.50;;;18.85;;
76284;SDS011;65096;50.998;7.098;2023-02-11T08:53:57;39.75;;;18.75;;
76284;SDS011;65096;50.998;7.098;2023-02-11T08:56:25;37.20;;;16.55;;
76284;SDS011;65096;50.998;7.098;2023-02-11T08:58:53;42.83;;;17.70;;
76284;SDS011;65096;50.998;7.098;2023-02-11T09:01:21;45.70;;;19.35;;
76284;SDS011;65096;50.998;7.098;2023-02-11T09:03:50;37.08;;;18.55;;
76284;SDS011;65096;50.998;7.098;2023-02-11T09:06:17;44.72;;;19.38;;
76284;SDS011;65096;50.998;7.098;2023-02-11T09:08:47;42.33;;;18.30;;
76284;SDS011;65096;50.998;7.098;2023-02-11T09:11:15;36.83;;;16.52;;
76284;SDS011;65096;50.998;7.098;2023-02-11T09:13:42;42.92;;;19.75;;
76284;SDS011;65096;50.998;7.098;2023-02-11T09:16:16;48.38;;;20.73;;
76284;SDS011;65096;50.998;7.098;2023-02-11T09:18:44;36.78;;;17.27;;
76284;SDS011;65096;50.998;7.098;2023-02-11T09:21:12;44.88;;;18.25;;
76284;SDS011;65096;50.998;7.098;2023-02-11T09:23:39;44.25;;;19.38;;
76284;SDS011;65096;50.998;7.098;2023-02-11T09:26:09;43.33;;;19.13;;
76284;SDS011;65096;50.998;7.098;2023-02-11T09:28:38;43.13;;;18.63;;
76284;SDS011;65096;50.998;7.098;2023-02-11T09:31:05;44.67;;;17.88;;
76284;SDS011;65096;50.998;7.098;2023-02-11T09:33:34;40.42;;;17.88;;
76284;SDS011;65096;50.998;7.098;2023-02-11T09:36:01;44.40;;;18.38;;
76284;SDS011;65096;50.998;7.098;2023-02-11T09:38:29;40.30;;;18.33;;
76284;SDS011;65096;50.998;7.098;2023-02-11T09:40:56;42.92;;;17.17;;
76284;SDS011;65096;50.998;7.098;2023-02-11T09:43:25;41.55;;;17.73;;
76284;SDS011;65096;50.998;7.098;2023-02-11T09:45:58;44.05;;;17.35;;
76284;SDS011;65096;50.998;7.098;2023-02-11T09:48:25;48.72;;;17.95;;
76284;SDS011;65096;50.998;7.098;2023-02-11T09:50:55;43.38;;;17.27;;
76284;SDS011;65096;50.998;7.098;2023-02-11T09:53:24;45.97;;;18.52;;
76284;SDS011;65096;50.998;7.098;2023-02-11T09:55:53;40.65;;;16.63;;
76284;SDS011;65096;50.998;7.098;2023-02-11T09:58:23;46.78;;;18.08;;
76284;SDS011;65096;50.998;7.098;2023-02-11T10:00:54;42.65;;;17.48;;
76284;SDS011;65096;50.998;7.098;2023-02-11T10:03:52;39.65;;;16.88;;
76284;SDS011;65096;50.998;7.098;2023-02-11T10:06:34;39.80;;;16.38;;
76284;SDS011;65096;50.998;7.098;2023-02-11T10:09:19;36.72;;;16.08;;
76284;SDS011;65096;50.998;7.098;2023-02-11T10:12:07;43.88;;;17.67;;
76284;SDS011;65096;50.998;7.098;2023-02-11T10:14:47;36.53;;;16.35;;
76284;SDS011;65096;50.998;7.098;2023-02-11T10:17:25;38.95;;;16.45;;
76284;SDS011;65096;50.998;7.098;2023-02-11T10:20:04;38.55;;;15.43;;
76284;SDS011;65096;50.998;7.098;2023-02-11T10:25:16;38.38;;;16.85;;
76284;SDS011;65096;50.998;7.098;2023-02-11T10:27:45;40.63;;;17.05;;
76284;SDS011;65096;50.998;7.098;2023-02-11T10:30:16;37.53;;;15.95;;
76284;SDS011;65096;50.998;7.098;2023-02-11T10:32:47;39.25;;;17.63;;
76284;SDS011;65096;50.998;7.098;2023-02-11T10:35:19;39.80;;;17.15;;
76284;SDS011;65096;50.998;7.098;2023-02-11T10:37:48;39.63;;;17.45;;
76284;SDS011;65096;50.998;7.098;2023-02-11T10:40:16;38.38;;;15.82;;
76284;SDS011;65096;50.998;7.098;2023-02-11T10:42:45;40.28;;;17.67;;
76284;SDS011;65096;50.998;7.098;2023-02-11T10:45:16;37.78;;;16.33;;
76284;SDS011;65096;50.998;7.098;2023-02-11T10:47:48;39.13;;;16.60;;
76284;SDS011;65096;50.998;7.098;2023-02-11T10:50:19;39.60;;;16.75;;
76284;SDS011;65096;50.998;7.098;2023-02-11T10:52:52;40.70;;;16.75;;
76284;SDS011;65096;50.998;7.098;2023-02-11T10:55:37;38.45;;;16.38;;
76284;SDS011;65096;50.998;7.098;2023-02-11T10:58:20;37.28;;;17.70;;
76284;SDS011;65096;50.998;7.098;2023-02-11T11:00:51;39.17;;;17.00;;
76284;SDS011;65096;50.998;7.098;2023-02-11T11:03:20;36.25;;;16.08;;
76284;SDS011;65096;50.998;7.098;2023-02-11T11:05:51;39.05;;;16.48;;
76284;SDS011;65096;50.998;7.098;2023-02-11T11:08:23;41.47;;;17.70;;
76284;SDS011;65096;50.998;7.098;2023-02-11T11:11:05;39.15;;;16.63;;
76284;SDS011;65096;50.998;7.098;2023-02-11T11:13:34;40.78;;;16.70;;
76284;SDS011;65096;50.998;7.098;2023-02-11T11:16:06;34.95;;;16.30;;
76284;SDS011;65096;50.998;7.098;2023-02-11T11:18:46;37.25;;;16.48;;
76284;SDS011;65096;50.998;7.098;2023-02-11T11:21:14;37.53;;;15.98;;
76284;SDS011;65096;50.998;7.098;2023-02-11T11:23:53;36.10;;;16.15;;
76284;SDS011;65096;50.998;7.098;2023-02-11T11:26:22;34.58;;;15.07;;
76284;SDS011;65096;50.998;7.098;2023-02-11T11:28:51;41.17;;;16.58;;
76284;SDS011;65096;50.998;7.098;2023-02-11T11:31:21;46.05;;;18.10;;
76284;SDS011;65096;50.998;7.098;2023-02-11T11:33:51;37.60;;;15.85;;
76284;SDS011;65096;50.998;7.098;2023-02-11T11:36:21;41.35;;;17.45;;
76284;SDS011;65096;50.998;7.098;2023-02-11T11:38:51;38.47;;;16.85;;
76284;SDS011;65096;50.998;7.098;2023-02-11T11:41:23;36.42;;;16.48;;
76284;SDS011;65096;50.998;7.098;2023-02-11T11:46:26;42.75;;;17.63;;
76284;SDS011;65096;50.998;7.098;2023-02-11T11:49:00;39.33;;;16.25;;
76284;SDS011;65096;50.998;7.098;2023-02-11T11:51:32;36.97;;;16.23;;
76284;SDS011;65096;50.998;7.098;2023-02-11T11:54:01;42.58;;;18.20;;
76284;SDS011;65096;50.998;7.098;2023-02-11T11:56:32;39.42;;;16.80;;
76284;SDS011;65096;50.998;7.098;2023-02-11T11:59:05;43.22;;;16.40;;
76284;SDS011;65096;50.998;7.098;2023-02-11T12:01:39;40.97;;;17.17;;
76284;SDS011;65096;50.998;7.098;2023-02-11T12:07:16;41.28;;;17.98;;
76284;SDS011;65096;50.998;7.098;2023-02-11T12:09:55;37.35;;;17.05;;
76284;SDS011;65096;50.998;7.098;2023-02-11T12:12:49;40.10;;;17.80;;
76284;SDS011;65096;50.998;7.098;2023-02-11T12:15:25;40.00;;;18.30;;
76284;SDS011;65096;50.998;7.098;2023-02-11T12:20:59;41.90;;;17.42;;
76284;SDS011;65096;50.998;7.098;2023-02-11T12:23:42;39.13;;;17.27;;
76284;SDS011;65096;50.998;7.098;2023-02-11T12:26:21;37.35;;;17.80;;
76284;SDS011;65096;50.998;7.098;2023-02-11T12:28:57;43.63;;;18.42;;
76284;SDS011;65096;50.998;7.098;2023-02-11T12:31:36;40.65;;;16.98;;
76284;SDS011;65096;50.998;7.098;2023-02-11T12:34:25;41.88;;;19.02;;
76284;SDS011;65096;50.998;7.098;2023-02-11T12:37:09;45.13;;;19.73;;
76284;SDS011;65096;50.998;7.098;2023-02-11T12:39:48;40.47;;;18.55;;
76284;SDS011;65096;50.998;7.098;2023-02-11T12:42:23;44.55;;;19.60;;
76284;SDS011;65096;50.998;7.098;2023-02-11T12:45:22;45.28;;;19.48;;
76284;SDS011;65096;50.998;7.098;2023-02-11T12:48:04;44.38;;;19.52;;
76284;SDS011;65096;50.998;7.098;2023-02-11T12:50:48;47.65;;;21.25;;
76284;SDS011;65096;50.998;7.098;2023-02-11T12:53:40;44.97;;;19.27;;
76284;SDS011;65096;50.998;7.098;2023-02-11T12:56:17;38.70;;;18.45;;
76284;SDS011;65096;50.998;7.098;2023-02-11T12:58:50;43.63;;;18.30;;
76284;SDS011;65096;50.998;7.098;2023-02-11T13:01:21;44.78;;;18.33;;
76284;SDS011;65096;50.998;7.098;2023-02-11T13:03:52;40.13;;;17.38;;
76284;SDS011;65096;50.998;7.098;2023-02-11T13:06:26;40.72;;;18.77;;
76284;SDS011;65096;50.998;7.098;2023-02-11T13:08:57;45.45;;;20.30;;
76284;SDS011;65096;50.998;7.098;2023-02-11T13:11:28;47.72;;;20.60;;
76284;SDS011;65096;50.998;7.098;2023-02-11T13:14:03;41.03;;;19.17;;
76284;SDS011;65096;50.998;7.098;2023-02-11T13:16:37;40.97;;;19.58;;
76284;SDS011;65096;50.998;7.098;2023-02-11T13:19:13;45.78;;;20.83;;
76284;SDS011;65096;50.998;7.098;2023-02-11T13:21:53;48.05;;;20.52;;
76284;SDS011;65096;50.998;7.098;2023-02-11T13:24:30;42.28;;;20.73;;
76284;SDS011;65096;50.998;7.098;2023-02-11T13:27:07;47.40;;;21.42;;
76284;SDS011;65096;50.998;7.098;2023-02-11T13:29:47;44.20;;;19.70;;
76284;SDS011;65096;50.998;7.098;2023-02-11T13:35:41;49.85;;;21.92;;
76284;SDS011;65096;50.998;7.098;2023-02-11T13:38:16;45.97;;;20.08;;
76284;SDS011;65096;50.998;7.098;2023-02-11T13:40:49;48.53;;;21.23;;
76284;SDS011;65096;50.998;7.098;2023-02-11T13:43:25;46.15;;;20.40;;
76284;SDS011;65096;50.998;7.098;2023-02-11T13:45:57;47.47;;;20.75;;
76284;SDS011;65096;50.998;7.098;2023-02-11T13:48:26;50.70;;;22.23;;
76284;SDS011;65096;50.998;7.098;2023-02-11T13:50:56;51.28;;;22.23;;
76284;SDS011;65096;50.998;7.098;2023-02-11T13:53:26;42.55;;;20.17;;
76284;SDS011;65096;50.998;7.098;2023-02-11T13:56:03;50.60;;;21.50;;
76284;SDS011;65096;50.998;7.098;2023-02-11T13:58:33;46.42;;;20.83;;
76284;SDS011;65096;50.998;7.098;2023-02-11T14:01:05;49.35;;;21.67;;
76284;SDS011;65096;50.998;7.098;2023-02-11T14:03:33;45.80;;;21.33;;
76284;SDS011;65096;50.998;7.098;2023-02-11T14:06:21;49.10;;;20.45;;
76284;SDS011;65096;50.998;7.098;2023-02-11T14:15:20;43.53;;;18.98;;
76284;SDS011;65096;50.998;7.098;2023-02-11T14:17:51;49.75;;;22.20;;
76284;SDS011;65096;50.998;7.098;2023-02-11T14:20:37;52.03;;;24.42;;
76284;SDS011;65096;50.998;7.098;2023-02-11T14:23:22;49.03;;;21.13;;
76284;SDS011;65096;50.998;7.098;2023-02-11T14:28:51;49.35;;;22.08;;
76284;SDS011;65096;50.998;7.098;2023-02-11T14:31:25;46.83;;;21.70;;
76284;SDS011;65096;50.998;7.098;2023-02-11T14:34:07;50.58;;;21.73;;
76284;SDS011;65096;50.998;7.098;2023-02-11T14:36:49;49.35;;;21.00;;
76284;SDS011;65096;50.998;7.098;2023-02-11T14:39:26;46.30;;;19.52;;
76284;SDS011;65096;50.998;7.098;2023-02-11T14:42:00;47.63;;;20.25;;
76284;SDS011;65096;50.998;7.098;2023-02-11T14:44:29;48.33;;;21.17;;
76284;SDS011;65096;50.998;7.098;2023-02-11T14:46:57;51.08;;;22.75;;
76284;SDS011;65096;50.998;7.098;2023-02-11T14:49:27;47.45;;;20.08;;
76284;SDS011;65096;50.998;7.098;2023-02-11T14:51:56;52.30;;;21.02;;
76284;SDS011;65096;50.998;7.098;2023-02-11T14:54:29;46.58;;;20.70;;
76284;SDS011;65096;50.998;7.098;2023-02-11T14:57:07;52.30;;;21.63;;
76284;SDS011;65096;50.998;7.098;2023-02-11T14:59:36;50.33;;;20.95;;
76284;SDS011;65096;50.998;7.098;2023-02-11T15:02:12;49.22;;;22.05;;
76284;SDS011;65096;50.998;7.098;2023-02-11T15:04:48;51.90;;;22.40;;
76284;SDS011;65096;50.998;7.098;2023-02-11T15:07:15;49.88;;;21.70;;
76284;SDS011;65096;50.998;7.098;2023-02-11T15:09:43;50.65;;;20.25;;
76284;SDS011;65096;50.998;7.098;2023-02-11T15:12:15;47.40;;;21.60;;
76284;SDS011;65096;50.998;7.098;2023-02-11T15:14:44;48.35;;;21.30;;
76284;SDS011;65096;50.998;7.098;2023-02-11T15:17:13;46.92;;;20.13;;